createdAt,value
2023-03-19T00:00:47.148Z,2.70
2023-03-19T00:03:14.180Z,2.70
2023-03-19T00:05:41.665Z,2.67
2023-03-19T00:08:08.755Z,2.67
2023-03-19T00:10:39.482Z,2.70
2023-03-19T00:13:07.062Z,2.67
2023-03-19T00:15:34.895Z,2.70
2023-03-19T00:18:02.499Z,2.70
2023-03-19T00:20:29.454Z,2.70
2023-03-19T00:22:56.967Z,2.63
2023-03-19T00:25:24.231Z,2.70
2023-03-19T00:27:52.709Z,2.63
2023-03-19T00:30:20.703Z,2.60
2023-03-19T00:32:48.716Z,2.63
2023-03-19T00:35:16.168Z,2.63
2023-03-19T00:37:43.863Z,2.77
2023-03-19T00:40:11.943Z,2.70
2023-03-19T00:42:39.716Z,2.70
2023-03-19T00:45:08.090Z,2.70
2023-03-19T00:47:36.010Z,2.73
2023-03-19T00:50:05.253Z,2.70
2023-03-19T00:52:33.502Z,2.67
2023-03-19T00:55:00.840Z,2.70
2023-03-19T00:57:28.336Z,2.70
2023-03-19T00:59:56.004Z,2.73
2023-03-19T01:02:23.417Z,2.77
2023-03-19T01:04:50.893Z,2.83
2023-03-19T01:07:18.333Z,2.73
2023-03-19T01:09:45.845Z,2.77
2023-03-19T01:12:12.919Z,2.70
2023-03-19T01:14:40.437Z,2.77
2023-03-19T01:17:09.096Z,2.83
2023-03-19T01:19:36.620Z,2.80
2023-03-19T01:22:04.378Z,2.90
2023-03-19T01:24:32.723Z,2.87
2023-03-19T01:27:00.194Z,2.80
2023-03-19T01:29:35.706Z,2.83
2023-03-19T01:32:11.630Z,2.87
2023-03-19T01:34:44.446Z,2.90
2023-03-19T01:37:15.462Z,2.90
2023-03-19T01:39:43.639Z,2.90
2023-03-19T01:42:14.363Z,2.83
2023-03-19T01:45:03.853Z,2.80
2023-03-19T01:47:39.352Z,2.77
2023-03-19T01:50:35.952Z,2.73
2023-03-19T01:53:28.268Z,2.80
2023-03-19T01:56:20.981Z,2.80
2023-03-19T01:59:17.556Z,2.80
2023-03-19T02:02:27.924Z,2.73
2023-03-19T02:05:08.095Z,2.80
2023-03-19T02:07:38.727Z,2.80
2023-03-19T02:10:12.336Z,2.80
2023-03-19T02:12:39.803Z,2.80
2023-03-19T02:15:07.616Z,2.80
2023-03-19T02:17:35.370Z,2.80
2023-03-19T02:20:32.978Z,2.77
2023-03-19T02:23:39.647Z,2.80
2023-03-19T02:26:19.568Z,2.87
2023-03-19T02:28:52.075Z,2.80
2023-03-19T02:31:27.949Z,2.70
2023-03-19T02:34:26.865Z,2.80
2023-03-19T02:37:10.526Z,2.80
2023-03-19T02:39:58.298Z,2.80
2023-03-19T02:42:30.422Z,2.73
2023-03-19T02:44:58.416Z,2.80
2023-03-19T02:47:27.047Z,2.73
2023-03-19T02:49:54.450Z,2.80
2023-03-19T02:52:22.064Z,2.77
2023-03-19T02:54:49.574Z,2.80
2023-03-19T02:57:17.327Z,2.87
2023-03-19T02:59:44.383Z,2.80
2023-03-19T03:02:12.108Z,2.73
2023-03-19T03:04:39.149Z,2.80
2023-03-19T03:07:07.327Z,2.80
2023-03-19T03:09:34.875Z,2.90
2023-03-19T03:12:01.932Z,2.77
2023-03-19T03:14:29.621Z,2.87
2023-03-19T03:16:57.306Z,2.90
2023-03-19T03:19:24.744Z,2.80
2023-03-19T03:21:51.928Z,2.80
2023-03-19T03:24:19.271Z,2.83
2023-03-19T03:26:46.667Z,2.90
2023-03-19T03:29:16.569Z,2.90
2023-03-19T03:31:43.555Z,2.77
2023-03-19T03:34:10.830Z,2.83
2023-03-19T03:36:38.590Z,2.80
2023-03-19T03:39:05.852Z,2.93
2023-03-19T03:41:33.135Z,2.80
2023-03-19T03:44:01.700Z,2.90
2023-03-19T03:46:30.609Z,2.90
2023-03-19T03:48:57.834Z,2.87
2023-03-19T03:51:24.838Z,2.87
2023-03-19T03:53:51.866Z,2.83
2023-03-19T03:56:18.874Z,2.80
2023-03-19T03:58:47.471Z,2.90
2023-03-19T04:01:18.696Z,2.87
2023-03-19T04:03:50.244Z,2.90
2023-03-19T04:06:24.047Z,2.90
2023-03-19T04:09:07.865Z,2.80
2023-03-19T04:11:36.542Z,2.90
2023-03-19T04:14:04.184Z,2.90
2023-03-19T04:16:33.236Z,2.83
2023-03-19T04:19:00.752Z,2.80
2023-03-19T04:21:29.603Z,2.90
2023-03-19T04:23:56.790Z,2.90
2023-03-19T04:26:23.813Z,2.80
2023-03-19T04:28:50.799Z,2.87
2023-03-19T04:31:18.125Z,2.80
2023-03-19T04:33:45.644Z,2.90
2023-03-19T04:36:13.447Z,2.83
2023-03-19T04:38:41.470Z,2.80
2023-03-19T04:41:08.975Z,2.80
2023-03-19T04:43:38.529Z,2.80
2023-03-19T04:46:08.048Z,2.90
2023-03-19T04:48:36.419Z,2.83
2023-03-19T04:51:03.950Z,2.90
2023-03-19T04:53:32.871Z,2.90
2023-03-19T04:56:00.284Z,2.87
2023-03-19T04:58:27.917Z,3.00
2023-03-19T05:01:00.476Z,2.90
2023-03-19T05:03:47.957Z,2.87
2023-03-19T05:06:17.225Z,2.87
2023-03-19T05:08:44.369Z,2.83
2023-03-19T05:11:12.045Z,2.87
2023-03-19T05:13:54.214Z,2.83
2023-03-19T05:16:21.356Z,2.87
2023-03-19T05:18:49.539Z,2.80
2023-03-19T05:21:17.502Z,2.77
2023-03-19T05:23:45.781Z,2.80
2023-03-19T05:26:12.764Z,2.90
2023-03-19T05:29:00.362Z,2.80
2023-03-19T05:31:38.576Z,2.83
2023-03-19T05:34:05.997Z,2.90
2023-03-19T05:36:34.603Z,2.80
2023-03-19T05:39:08.032Z,2.80
2023-03-19T05:41:38.124Z,2.77
2023-03-19T05:44:07.427Z,2.80
2023-03-19T05:46:44.000Z,2.87
2023-03-19T05:49:12.349Z,2.80
2023-03-19T05:51:39.761Z,2.73
2023-03-19T05:54:08.184Z,2.70
2023-03-19T05:56:57.236Z,2.80
2023-03-19T05:59:37.348Z,2.80
2023-03-19T06:02:28.913Z,2.70
2023-03-19T06:05:12.008Z,2.73
2023-03-19T06:07:39.231Z,2.80
2023-03-19T06:10:12.287Z,2.80
2023-03-19T06:12:40.453Z,2.73
2023-03-19T06:15:10.927Z,2.70
2023-03-19T06:18:04.499Z,2.70
2023-03-19T06:20:31.921Z,2.63
2023-03-19T06:23:00.039Z,2.70
2023-03-19T06:25:27.748Z,2.70
2023-03-19T06:27:54.822Z,2.73
2023-03-19T06:30:29.293Z,2.60
2023-03-19T06:33:00.013Z,2.60
2023-03-19T06:35:28.852Z,2.70
2023-03-19T06:37:57.876Z,2.67
2023-03-19T06:40:25.283Z,2.70
2023-03-19T06:42:52.321Z,2.57
2023-03-19T06:45:20.145Z,2.63
2023-03-19T06:47:47.566Z,2.60
2023-03-19T06:50:16.669Z,2.67
2023-03-19T06:52:44.620Z,2.73
2023-03-19T06:55:12.546Z,2.60
2023-03-19T06:57:40.110Z,2.77
2023-03-19T07:00:11.351Z,2.63
2023-03-19T07:02:38.748Z,2.60
2023-03-19T07:05:06.433Z,2.60
2023-03-19T07:07:33.972Z,2.60
2023-03-19T07:10:01.139Z,2.57
2023-03-19T07:12:28.672Z,2.50
2023-03-19T07:14:56.569Z,2.53
2023-03-19T07:17:25.283Z,2.63
2023-03-19T07:19:52.852Z,2.53
2023-03-19T07:22:20.017Z,2.50
2023-03-19T07:24:47.015Z,2.40
2023-03-19T07:27:14.142Z,2.50
2023-03-19T07:29:41.103Z,2.50
2023-03-19T07:32:10.755Z,2.50
2023-03-19T07:34:38.201Z,2.50
2023-03-19T07:37:06.247Z,2.47
2023-03-19T07:39:33.955Z,2.50
2023-03-19T07:42:01.388Z,2.47
2023-03-19T07:44:30.464Z,2.57
2023-03-19T07:46:57.904Z,2.50
2023-03-19T07:49:25.389Z,2.43
2023-03-19T07:51:52.523Z,2.53
2023-03-19T07:54:19.968Z,2.50
2023-03-19T07:56:46.948Z,2.50
2023-03-19T07:59:14.322Z,2.60
2023-03-19T08:01:41.395Z,2.50
2023-03-19T08:04:08.465Z,2.50
2023-03-19T08:06:35.488Z,2.50
2023-03-19T08:09:02.485Z,2.50
2023-03-19T08:11:30.023Z,2.60
2023-03-19T08:13:57.120Z,2.60
2023-03-19T08:16:24.381Z,2.53
2023-03-19T08:18:52.534Z,2.53
2023-03-19T08:21:20.306Z,2.57
2023-03-19T08:23:47.278Z,2.63
2023-03-19T08:26:14.773Z,2.53
2023-03-19T08:28:41.785Z,2.50
2023-03-19T08:31:13.981Z,2.57
2023-03-19T08:33:41.629Z,2.60
2023-03-19T08:36:14.370Z,2.47
2023-03-19T08:38:43.479Z,2.43
2023-03-19T08:41:10.990Z,2.43
2023-03-19T08:43:38.734Z,2.50
2023-03-19T08:46:06.472Z,2.50
2023-03-19T08:48:33.534Z,2.60
2023-03-19T08:51:05.787Z,2.60
2023-03-19T08:53:33.517Z,2.57
2023-03-19T08:56:05.404Z,2.60
2023-03-19T08:58:33.430Z,2.60
2023-03-19T09:03:45.305Z,2.50
2023-03-19T09:06:14.836Z,2.50
2023-03-19T09:08:44.932Z,2.50
2023-03-19T09:11:14.244Z,2.50
2023-03-19T09:13:41.714Z,2.53
2023-03-19T09:16:08.732Z,2.67
2023-03-19T09:18:36.603Z,2.50
2023-03-19T09:21:04.542Z,2.50
2023-03-19T09:23:31.995Z,2.50
2023-03-19T09:25:59.118Z,2.50
2023-03-19T09:28:26.333Z,2.53
2023-03-19T09:30:53.613Z,2.40
2023-03-19T09:33:21.622Z,2.60
2023-03-19T09:35:53.954Z,2.60
2023-03-19T09:38:23.127Z,2.50
2023-03-19T09:41:50.214Z,2.57
2023-03-19T09:44:29.704Z,2.43
2023-03-19T09:47:27.390Z,2.60
2023-03-19T09:50:01.260Z,2.50
2023-03-19T09:53:14.717Z,2.60
2023-03-19T09:55:51.816Z,2.50
2023-03-19T09:58:28.269Z,2.60
2023-03-19T10:00:56.924Z,2.43
2023-03-19T10:03:49.566Z,2.60
2023-03-19T10:06:40.205Z,2.47
2023-03-19T10:10:01.328Z,2.63
2023-03-19T10:12:57.058Z,2.63
2023-03-19T10:15:33.777Z,2.70
2023-03-19T10:18:31.202Z,2.50
2023-03-19T10:21:39.517Z,2.63
2023-03-19T10:24:31.247Z,2.70
2023-03-19T10:27:05.432Z,2.67
2023-03-19T10:29:34.327Z,2.60
2023-03-19T10:32:34.800Z,2.83
2023-03-19T10:35:41.210Z,2.57
2023-03-19T10:38:26.722Z,2.70
2023-03-19T10:41:18.758Z,2.53
2023-03-19T10:43:56.870Z,2.57
2023-03-19T10:46:24.512Z,2.50
2023-03-19T10:48:52.489Z,2.50
2023-03-19T10:51:28.937Z,2.60
2023-03-19T10:54:00.401Z,2.50
2023-03-19T10:56:34.485Z,2.70
2023-03-19T10:59:07.382Z,2.50
2023-03-19T11:01:41.576Z,2.50
2023-03-19T11:04:21.928Z,2.50
2023-03-19T11:07:18.280Z,2.47
2023-03-19T11:09:49.571Z,2.47
2023-03-19T11:12:55.791Z,2.60
2023-03-19T11:15:38.064Z,2.50
2023-03-19T11:18:29.569Z,2.60
2023-03-19T11:21:04.072Z,2.57
2023-03-19T11:23:41.338Z,2.50
2023-03-19T11:26:09.931Z,2.50
2023-03-19T11:28:38.113Z,2.50
2023-03-19T11:31:27.210Z,2.33
2023-03-19T11:35:04.885Z,2.40
2023-03-19T11:37:58.042Z,2.30
2023-03-19T11:40:44.235Z,2.17
2023-03-19T11:43:47.973Z,2.70
2023-03-19T11:46:54.706Z,2.50
2023-03-19T11:49:49.581Z,2.80
2023-03-19T11:52:37.082Z,2.13
2023-03-19T11:55:17.442Z,1.97
2023-03-19T11:58:44.828Z,1.90
2023-03-19T12:02:01.626Z,1.50
2023-03-19T12:05:10.018Z,1.80
2023-03-19T12:08:38.293Z,2.70
2023-03-19T12:11:42.984Z,2.80
2023-03-19T12:14:43.380Z,3.37
2023-03-19T12:17:30.922Z,2.70
2023-03-19T12:20:21.927Z,2.53
2023-03-19T12:23:36.281Z,2.27
2023-03-19T12:26:12.407Z,2.10
2023-03-19T12:29:04.475Z,2.10
2023-03-19T12:32:07.347Z,2.57
2023-03-19T12:34:51.315Z,2.43
2023-03-19T12:37:38.534Z,2.10
2023-03-19T12:40:28.308Z,2.57
2023-03-19T12:43:01.982Z,2.20
2023-03-19T12:45:42.596Z,2.30
2023-03-19T12:48:28.485Z,2.20
2023-03-19T12:51:05.761Z,2.27
2023-03-19T12:54:03.520Z,2.10
2023-03-19T12:57:31.743Z,2.10
2023-03-19T13:00:20.627Z,2.17
2023-03-19T13:03:38.652Z,2.10
2023-03-19T13:06:16.716Z,2.17
2023-03-19T13:09:05.620Z,2.20
2023-03-19T13:12:01.986Z,2.30
2023-03-19T13:15:12.762Z,2.20
2023-03-19T13:18:43.894Z,2.20
2023-03-19T13:21:28.876Z,2.07
2023-03-19T13:24:25.977Z,1.90
2023-03-19T13:26:56.889Z,1.80
2023-03-19T13:29:33.902Z,2.10
2023-03-19T13:32:10.314Z,2.20
2023-03-19T13:34:43.255Z,2.10
2023-03-19T13:37:21.829Z,2.20
2023-03-19T13:39:50.769Z,2.47
2023-03-19T13:42:44.503Z,2.27
2023-03-19T13:45:40.097Z,2.10
2023-03-19T13:48:28.523Z,2.20
2023-03-19T13:51:22.638Z,2.10
2023-03-19T13:54:12.873Z,1.93
2023-03-19T13:57:04.587Z,1.90
2023-03-19T13:59:41.510Z,2.60
2023-03-19T14:02:25.486Z,2.30
2023-03-19T14:05:17.104Z,2.50
2023-03-19T14:07:54.252Z,2.30
2023-03-19T14:10:32.224Z,2.27
2023-03-19T14:13:20.387Z,2.17
2023-03-19T14:15:52.279Z,2.60
2023-03-19T14:18:24.772Z,2.30
2023-03-19T14:21:12.964Z,2.30
2023-03-19T14:23:55.196Z,2.33
2023-03-19T14:26:31.076Z,2.20
2023-03-19T14:29:04.644Z,2.20
2023-03-19T14:32:02.736Z,2.10
2023-03-19T14:34:41.239Z,2.17
2023-03-19T14:37:28.315Z,2.20
2023-03-19T14:40:27.547Z,2.20
2023-03-19T14:43:34.536Z,2.40
2023-03-19T14:46:04.783Z,2.30
2023-03-19T14:48:56.309Z,2.27
2023-03-19T14:52:02.639Z,2.43
2023-03-19T14:54:53.467Z,2.30
2023-03-19T14:57:27.449Z,2.33
2023-03-19T14:59:55.835Z,2.30
2023-03-19T15:02:39.271Z,2.30
2023-03-19T15:05:33.632Z,2.30
2023-03-19T15:08:12.033Z,2.30
2023-03-19T15:11:14.279Z,2.30
2023-03-19T15:14:24.712Z,2.60
2023-03-19T15:17:14.497Z,2.70
2023-03-19T15:19:42.230Z,2.80
2023-03-19T15:22:21.969Z,2.73
2023-03-19T15:24:50.456Z,2.40
2023-03-19T15:27:26.600Z,2.40
2023-03-19T15:30:03.211Z,2.30
2023-03-19T15:33:04.537Z,2.20
2023-03-19T15:35:36.404Z,2.20
2023-03-19T15:38:11.384Z,2.37
2023-03-19T15:40:41.851Z,2.23
2023-03-19T15:43:13.302Z,2.37
2023-03-19T15:45:48.080Z,2.53
2023-03-19T15:48:58.864Z,2.67
2023-03-19T15:51:27.723Z,2.53
2023-03-19T15:53:56.531Z,2.57
2023-03-19T15:56:25.070Z,2.83
2023-03-19T15:58:57.194Z,2.87
2023-03-19T16:01:27.548Z,2.80
2023-03-19T16:04:14.879Z,2.73
2023-03-19T16:06:50.765Z,2.67
2023-03-19T16:09:33.923Z,2.70
2023-03-19T16:12:02.567Z,2.53
2023-03-19T16:14:42.238Z,2.53
2023-03-19T16:17:16.825Z,2.53
2023-03-19T16:19:56.474Z,2.40
2023-03-19T16:22:30.723Z,2.50
2023-03-19T16:25:01.961Z,2.50
2023-03-19T16:27:37.905Z,2.50
2023-03-19T16:30:16.691Z,2.43
2023-03-19T16:32:44.768Z,2.50
2023-03-19T16:35:19.966Z,2.40
2023-03-19T16:37:49.949Z,2.40
2023-03-19T16:40:17.368Z,2.43
2023-03-19T16:42:56.638Z,2.50
2023-03-19T16:45:34.690Z,2.40
2023-03-19T16:48:03.707Z,2.43
2023-03-19T16:50:40.237Z,2.40
2023-03-19T16:53:32.116Z,2.50
2023-03-19T16:56:01.786Z,2.60
2023-03-19T16:58:42.672Z,2.50
2023-03-19T17:01:20.189Z,2.50
2023-03-19T17:03:49.626Z,2.60
2023-03-19T17:06:18.809Z,2.60
2023-03-19T17:08:46.768Z,2.60
2023-03-19T17:11:34.113Z,2.60
2023-03-19T17:14:03.814Z,2.50
2023-03-19T17:16:31.539Z,2.60
2023-03-19T17:19:07.640Z,2.60
2023-03-19T17:21:36.631Z,2.70
2023-03-19T17:24:33.220Z,2.57
2023-03-19T17:27:04.439Z,2.67
2023-03-19T17:29:35.925Z,2.70
2023-03-19T17:32:18.269Z,2.70
2023-03-19T17:34:45.720Z,2.60
2023-03-19T17:37:16.740Z,2.73
2023-03-19T17:39:45.612Z,2.80
2023-03-19T17:42:23.842Z,2.67
2023-03-19T17:44:53.584Z,2.80
2023-03-19T17:47:21.067Z,2.80
2023-03-19T17:49:48.667Z,2.63
2023-03-19T17:52:18.551Z,2.90
2023-03-19T17:54:46.051Z,2.70
2023-03-19T17:57:15.524Z,2.80
2023-03-19T17:59:43.085Z,2.73
2023-03-19T18:02:28.237Z,2.70
2023-03-19T18:04:56.072Z,2.67
2023-03-19T18:07:23.514Z,2.80
2023-03-19T18:09:50.547Z,2.70
2023-03-19T18:12:17.585Z,2.80
2023-03-19T18:14:44.889Z,2.80
2023-03-19T18:17:17.468Z,2.77
2023-03-19T18:19:47.711Z,2.80
2023-03-19T18:22:18.259Z,2.73
2023-03-19T18:24:46.437Z,2.90
2023-03-19T18:27:14.124Z,2.80
2023-03-19T18:29:41.731Z,2.80
2023-03-19T18:32:24.018Z,2.63
2023-03-19T18:34:51.177Z,2.73
2023-03-19T18:37:18.728Z,2.67
2023-03-19T18:39:46.313Z,2.73
2023-03-19T18:42:14.471Z,2.73
2023-03-19T18:44:41.919Z,2.87
2023-03-19T18:47:16.581Z,2.80
2023-03-19T18:49:45.052Z,2.77
2023-03-19T18:52:16.548Z,2.80
2023-03-19T18:54:47.244Z,2.83
2023-03-19T18:57:16.814Z,2.80
2023-03-19T18:59:44.694Z,2.70
2023-03-19T19:02:33.314Z,2.70
2023-03-19T19:05:01.450Z,2.77
2023-03-19T19:07:30.077Z,2.80
2023-03-19T19:09:57.391Z,2.60
2023-03-19T19:12:27.184Z,2.60
2023-03-19T19:14:54.374Z,2.77
2023-03-19T19:17:24.461Z,2.60
2023-03-19T19:19:51.737Z,2.70
2023-03-19T19:22:20.161Z,2.70
2023-03-19T19:24:47.602Z,2.73
2023-03-19T19:27:23.804Z,2.70
2023-03-19T19:29:51.121Z,2.67
2023-03-19T19:32:30.733Z,2.70
2023-03-19T19:34:58.259Z,2.70
2023-03-19T19:37:25.891Z,2.67
2023-03-19T19:39:53.238Z,2.63
2023-03-19T19:42:22.788Z,2.57
2023-03-19T19:44:59.059Z,2.70
2023-03-19T19:47:27.851Z,2.60
2023-03-19T19:49:56.350Z,2.73
2023-03-19T19:52:23.396Z,2.70
2023-03-19T19:54:51.655Z,2.67
2023-03-19T19:57:24.451Z,2.70
2023-03-19T19:59:53.281Z,2.83
2023-03-19T20:02:25.920Z,2.70
2023-03-19T20:04:53.013Z,2.70
2023-03-19T20:07:20.553Z,2.70
2023-03-19T20:09:48.281Z,2.63
2023-03-19T20:12:26.871Z,2.77
2023-03-19T20:14:55.664Z,2.60
2023-03-19T20:17:22.740Z,2.70
2023-03-19T20:19:50.217Z,2.70
2023-03-19T20:22:17.569Z,2.60
2023-03-19T20:24:48.302Z,2.70
2023-03-19T20:27:23.624Z,2.80
2023-03-19T20:29:51.406Z,2.60
2023-03-19T20:32:37.289Z,2.70
2023-03-19T20:35:19.392Z,2.80
2023-03-19T20:37:46.931Z,2.67
2023-03-19T20:40:15.484Z,2.60
2023-03-19T20:42:51.533Z,2.80
2023-03-19T20:45:34.354Z,2.60
2023-03-19T20:48:02.142Z,2.57
2023-03-19T20:50:32.709Z,2.60
2023-03-19T20:53:01.355Z,2.60
2023-03-19T20:55:35.059Z,2.70
2023-03-19T20:58:13.858Z,2.70
2023-03-19T21:00:41.009Z,2.50
2023-03-19T21:03:22.750Z,2.60
2023-03-19T21:06:18.754Z,2.80
2023-03-19T21:08:56.945Z,2.67
2023-03-19T21:11:38.002Z,2.70
2023-03-19T21:14:06.417Z,2.73
2023-03-19T21:16:33.976Z,2.73
2023-03-19T21:19:01.491Z,2.70
2023-03-19T21:21:35.042Z,2.70
2023-03-19T21:24:20.768Z,2.60
2023-03-19T21:26:48.472Z,2.70
2023-03-19T21:29:29.149Z,2.67
2023-03-19T21:31:57.739Z,2.70
2023-03-19T21:34:25.173Z,2.60
2023-03-19T21:36:52.664Z,2.73
2023-03-19T21:39:19.719Z,2.57
2023-03-19T21:41:47.307Z,2.60
2023-03-19T21:44:21.481Z,2.60
2023-03-19T21:46:49.278Z,2.60
2023-03-19T21:49:16.584Z,2.63
2023-03-19T21:51:44.173Z,2.70
2023-03-19T21:54:11.264Z,2.60
2023-03-19T21:56:43.548Z,2.70
2023-03-19T21:59:22.016Z,2.80
2023-03-19T22:01:49.450Z,2.67
2023-03-19T22:04:16.568Z,2.63
2023-03-19T22:06:44.035Z,2.70
2023-03-19T22:09:11.499Z,2.73
2023-03-19T22:11:40.743Z,2.60
2023-03-19T22:14:24.513Z,2.80
2023-03-19T22:16:54.986Z,2.70
2023-03-19T22:19:22.695Z,2.80
2023-03-19T22:21:50.240Z,2.70
2023-03-19T22:24:17.669Z,2.80
2023-03-19T22:26:49.426Z,2.80
2023-03-19T22:29:23.476Z,2.70
2023-03-19T22:31:53.298Z,2.77
2023-03-19T22:34:25.885Z,2.70
2023-03-19T22:36:53.608Z,2.70
2023-03-19T22:39:20.694Z,2.77
2023-03-19T22:41:49.306Z,2.67
2023-03-19T22:44:29.659Z,2.70
2023-03-19T22:47:00.101Z,2.80
2023-03-19T22:49:29.806Z,2.70
2023-03-19T22:52:12.919Z,2.77
2023-03-19T22:54:41.569Z,2.77
2023-03-19T22:57:14.779Z,2.90
2023-03-19T22:59:43.249Z,2.77
2023-03-19T23:02:16.446Z,2.70
2023-03-19T23:04:43.620Z,2.80
2023-03-19T23:07:13.967Z,2.70
2023-03-19T23:09:41.698Z,2.70
2023-03-19T23:14:36.671Z,2.80
2023-03-19T23:17:17.393Z,2.80
2023-03-19T23:19:44.643Z,2.70
2023-03-19T23:22:16.814Z,2.80
2023-03-19T23:24:44.657Z,2.73
2023-03-19T23:27:25.976Z,2.73
2023-03-19T23:29:53.668Z,2.77
2023-03-19T23:32:21.665Z,2.80
2023-03-19T23:34:59.460Z,2.80
2023-03-19T23:37:28.646Z,2.90
2023-03-19T23:39:56.174Z,2.80
2023-03-19T23:42:29.969Z,2.77
2023-03-19T23:45:01.853Z,2.80
2023-03-19T23:47:30.970Z,2.73
2023-03-19T23:49:58.274Z,2.80
2023-03-19T23:52:26.668Z,2.80
2023-03-19T23:54:54.151Z,2.77
2023-03-19T23:57:24.507Z,2.90
2023-03-19T23:59:53.368Z,2.80
